sensor_id;sensor_type;location;lat;lon;timestamp;temperature;humidity
61400;DHT22;47269;48.182;-1.946;2023-04-30T06:02:31;11.90;99.90
61400;DHT22;47269;48.182;-1.946;2023-04-30T06:04:57;11.80;99.90
61400;DHT22;47269;48.182;-1.946;2023-04-30T06:07:23;11.80;99.90
61400;DHT22;47269;48.182;-1.946;2023-04-30T06:09:48;11.90;99.90
61400;DHT22;47269;48.182;-1.946;2023-04-30T06:12:15;12.00;99.90
61400;DHT22;47269;48.182;-1.946;2023-04-30T06:14:41;12.00;99.90
61400;DHT22;47269;48.182;-1.946;2023-04-30T06:17:10;12.10;99.90
61400;DHT22;47269;48.182;-1.946;2023-04-30T06:19:35;11.80;99.90
61400;DHT22;47269;48.182;-1.946;2023-04-30T06:22:03;11.80;99.90
61400;DHT22;47269;48.182;-1.946;2023-04-30T06:24:29;11.80;99.90
61400;DHT22;47269;48.182;-1.946;2023-04-30T06:26:55;11.80;99.90
61400;DHT22;47269;48.182;-1.946;2023-04-30T06:29:21;11.90;99.90
61400;DHT22;47269;48.182;-1.946;2023-04-30T06:31:50;12.00;99.90
61400;DHT22;47269;48.182;-1.946;2023-04-30T06:34:17;11.90;99.90
61400;DHT22;47269;48.182;-1.946;2023-04-30T06:36:43;11.90;99.90
61400;DHT22;47269;48.182;-1.946;2023-04-30T06:39:08;12.00;99.90
61400;DHT22;47269;48.182;-1.946;2023-04-30T06:41:34;12.10;99.90
61400;DHT22;47269;48.182;-1.946;2023-04-30T06:44:00;12.20;99.90
61400;DHT22;47269;48.182;-1.946;2023-04-30T06:46:25;12.20;99.90
61400;DHT22;47269;48.182;-1.946;2023-04-30T06:48:54;12.20;99.90
61400;DHT22;47269;48.182;-1.946;2023-04-30T06:51:20;12.40;99.90
61400;DHT22;47269;48.182;-1.946;2023-04-30T06:53:45;12.20;99.90
61400;DHT22;47269;48.182;-1.946;2023-04-30T06:56:11;12.30;99.90
61400;DHT22;47269;48.182;-1.946;2023-04-30T06:58:37;12.40;99.90
61400;DHT22;47269;48.182;-1.946;2023-04-30T07:01:03;12.40;99.90
61400;DHT22;47269;48.182;-1.946;2023-04-30T07:03:28;12.60;99.90
61400;DHT22;47269;48.182;-1.946;2023-04-30T07:05:54;12.80;99.90
61400;DHT22;47269;48.182;-1.946;2023-04-30T07:08:20;12.90;99.90
61400;DHT22;47269;48.182;-1.946;2023-04-30T07:10:46;12.90;99.90
61400;DHT22;47269;48.182;-1.946;2023-04-30T07:13:12;13.00;99.90
61400;DHT22;47269;48.182;-1.946;2023-04-30T07:15:37;13.20;99.90
61400;DHT22;47269;48.182;-1.946;2023-04-30T07:18:03;13.20;99.90
61400;DHT22;47269;48.182;-1.946;2023-04-30T07:20:29;13.20;99.90
61400;DHT22;47269;48.182;-1.946;2023-04-30T07:22:55;13.30;99.90
61400;DHT22;47269;48.182;-1.946;2023-04-30T07:25:20;13.50;99.90
61400;DHT22;47269;48.182;-1.946;2023-04-30T07:27:46;13.60;99.90
61400;DHT22;47269;48.182;-1.946;2023-04-30T07:30:12;13.40;99.90
61400;DHT22;47269;48.182;-1.946;2023-04-30T07:32:38;13.30;99.90
61400;DHT22;47269;48.182;-1.946;2023-04-30T07:35:05;13.40;99.90
61400;DHT22;47269;48.182;-1.946;2023-04-30T07:37:31;13.40;99.90
61400;DHT22;47269;48.182;-1.946;2023-04-30T07:39:57;13.40;99.90
61400;DHT22;47269;48.182;-1.946;2023-04-30T07:42:23;13.50;99.90
61400;DHT22;47269;48.182;-1.946;2023-04-30T07:44:48;13.50;99.90
61400;DHT22;47269;48.182;-1.946;2023-04-30T07:47:14;13.50;99.90
61400;DHT22;47269;48.182;-1.946;2023-04-30T07:49:40;13.60;99.90
61400;DHT22;47269;48.182;-1.946;2023-04-30T07:52:06;13.50;99.90
61400;DHT22;47269;48.182;-1.946;2023-04-30T07:54:35;13.70;99.90
61400;DHT22;47269;48.182;-1.946;2023-04-30T07:57:03;13.70;99.90
61400;DHT22;47269;48.182;-1.946;2023-04-30T07:59:30;13.80;99.90
61400;DHT22;47269;48.182;-1.946;2023-04-30T08:01:55;13.80;99.90
61400;DHT22;47269;48.182;-1.946;2023-04-30T08:04:21;14.00;99.90
61400;DHT22;47269;48.182;-1.946;2023-04-30T08:06:47;14.10;99.90
61400;DHT22;47269;48.182;-1.946;2023-04-30T08:09:12;14.10;99.90
61400;DHT22;47269;48.182;-1.946;2023-04-30T08:11:40;14.10;99.90
61400;DHT22;47269;48.182;-1.946;2023-04-30T08:14:08;14.20;99.90
61400;DHT22;47269;48.182;-1.946;2023-04-30T08:16:34;14.20;99.90
61400;DHT22;47269;48.182;-1.946;2023-04-30T08:19:00;13.90;99.90
61400;DHT22;47269;48.182;-1.946;2023-04-30T08:21:26;14.00;99.90
61400;DHT22;47269;48.182;-1.946;2023-04-30T08:23:53;14.10;99.90
61400;DHT22;47269;48.182;-1.946;2023-04-30T08:26:19;14.10;99.90
61400;DHT22;47269;48.182;-1.946;2023-04-30T08:28:45;14.20;99.90
61400;DHT22;47269;48.182;-1.946;2023-04-30T08:31:11;14.20;99.90
61400;DHT22;47269;48.182;-1.946;2023-04-30T08:33:37;14.30;99.90
61400;DHT22;47269;48.182;-1.946;2023-04-30T08:36:03;14.20;99.90
61400;DHT22;47269;48.182;-1.946;2023-04-30T08:38:29;14.00;99.90
61400;DHT22;47269;48.182;-1.946;2023-04-30T08:41:13;14.00;99.90
61400;DHT22;47269;48.182;-1.946;2023-04-30T08:43:40;14.30;99.90
61400;DHT22;47269;48.182;-1.946;2023-04-30T08:46:06;14.10;99.90
61400;DHT22;47269;48.182;-1.946;2023-04-30T08:48:33;14.10;99.90
61400;DHT22;47269;48.182;-1.946;2023-04-30T08:51:03;14.10;99.90
61400;DHT22;47269;48.182;-1.946;2023-04-30T08:53:29;14.00;99.90
61400;DHT22;47269;48.182;-1.946;2023-04-30T08:55:56;14.00;99.90
61400;DHT22;47269;48.182;-1.946;2023-04-30T08:58:22;13.90;99.90
61400;DHT22;47269;48.182;-1.946;2023-04-30T09:00:48;13.90;99.90
61400;DHT22;47269;48.182;-1.946;2023-04-30T09:03:14;14.00;99.90
61400;DHT22;47269;48.182;-1.946;2023-04-30T09:05:39;13.90;99.90
61400;DHT22;47269;48.182;-1.946;2023-04-30T09:08:06;13.90;99.90
61400;DHT22;47269;48.182;-1.946;2023-04-30T09:10:34;13.80;99.90
61400;DHT22;47269;48.182;-1.946;2023-04-30T09:13:07;13.80;99.90
61400;DHT22;47269;48.182;-1.946;2023-04-30T09:15:35;13.80;99.90
61400;DHT22;47269;48.182;-1.946;2023-04-30T09:18:15;13.80;99.90
61400;DHT22;47269;48.182;-1.946;2023-04-30T09:20:56;14.10;99.90
61400;DHT22;47269;48.182;-1.946;2023-04-30T09:23:23;14.20;99.90
61400;DHT22;47269;48.182;-1.946;2023-04-30T09:25:49;14.20;99.90
61400;DHT22;47269;48.182;-1.946;2023-04-30T09:28:14;14.40;99.90
61400;DHT22;47269;48.182;-1.946;2023-04-30T09:30:41;14.50;99.90
61400;DHT22;47269;48.182;-1.946;2023-04-30T09:33:08;15.00;99.90
61400;DHT22;47269;48.182;-1.946;2023-04-30T09:35:35;14.90;99.90
61400;DHT22;47269;48.182;-1.946;2023-04-30T09:38:02;14.90;99.90
61400;DHT22;47269;48.182;-1.946;2023-04-30T09:40:41;15.30;99.90
61400;DHT22;47269;48.182;-1.946;2023-04-30T09:43:07;16.10;99.90
61400;DHT22;47269;48.182;-1.946;2023-04-30T09:45:59;16.00;99.90
61400;DHT22;47269;48.182;-1.946;2023-04-30T09:48:26;16.50;99.90
61400;DHT22;47269;48.182;-1.946;2023-04-30T09:50:55;16.80;99.90
61400;DHT22;47269;48.182;-1.946;2023-04-30T09:53:20;16.90;99.90
61400;DHT22;47269;48.182;-1.946;2023-04-30T09:55:49;16.90;99.90
61400;DHT22;47269;48.182;-1.946;2023-04-30T09:58:16;16.70;99.90
61400;DHT22;47269;48.182;-1.946;2023-04-30T10:00:44;15.90;99.90
61400;DHT22;47269;48.182;-1.946;2023-04-30T10:03:14;15.80;99.90
61400;DHT22;47269;48.182;-1.946;2023-04-30T10:05:44;15.50;99.90
61400;DHT22;47269;48.182;-1.946;2023-04-30T10:10:58;15.40;99.90
61400;DHT22;47269;48.182;-1.946;2023-04-30T10:13:30;15.50;99.90
61400;DHT22;47269;48.182;-1.946;2023-04-30T10:16:00;15.50;99.90
61400;DHT22;47269;48.182;-1.946;2023-04-30T10:18:33;15.50;99.90
61400;DHT22;47269;48.182;-1.946;2023-04-30T10:21:01;15.60;99.90
61400;DHT22;47269;48.182;-1.946;2023-04-30T10:23:28;15.60;99.90
61400;DHT22;47269;48.182;-1.946;2023-04-30T10:25:56;15.70;99.90
61400;DHT22;47269;48.182;-1.946;2023-04-30T10:28:22;15.40;99.90
61400;DHT22;47269;48.182;-1.946;2023-04-30T10:30:49;15.40;99.90
61400;DHT22;47269;48.182;-1.946;2023-04-30T10:33:28;15.40;99.90
61400;DHT22;47269;48.182;-1.946;2023-04-30T10:36:00;15.40;99.90
61400;DHT22;47269;48.182;-1.946;2023-04-30T10:38:30;15.80;99.90
61400;DHT22;47269;48.182;-1.946;2023-04-30T10:40:58;15.90;99.90
61400;DHT22;47269;48.182;-1.946;2023-04-30T10:43:26;16.10;99.90
61400;DHT22;47269;48.182;-1.946;2023-04-30T10:45:56;16.30;99.90
61400;DHT22;47269;48.182;-1.946;2023-04-30T10:48:23;16.20;99.90
61400;DHT22;47269;48.182;-1.946;2023-04-30T10:50:57;16.20;99.90
61400;DHT22;47269;48.182;-1.946;2023-04-30T10:53:24;15.80;99.90
61400;DHT22;47269;48.182;-1.946;2023-04-30T10:56:02;15.70;99.90
61400;DHT22;47269;48.182;-1.946;2023-04-30T10:58:34;15.60;99.90
61400;DHT22;47269;48.182;-1.946;2023-04-30T11:03:30;15.60;99.90
61400;DHT22;47269;48.182;-1.946;2023-04-30T11:05:59;15.40;99.90
61400;DHT22;47269;48.182;-1.946;2023-04-30T11:08:35;15.50;99.90
61400;DHT22;47269;48.182;-1.946;2023-04-30T11:11:01;15.60;99.90
61400;DHT22;47269;48.182;-1.946;2023-04-30T11:13:38;15.70;99.90
61400;DHT22;47269;48.182;-1.946;2023-04-30T11:16:05;15.60;99.90
61400;DHT22;47269;48.182;-1.946;2023-04-30T11:18:31;15.80;99.90
61400;DHT22;47269;48.182;-1.946;2023-04-30T11:20:57;16.20;99.90
61400;DHT22;47269;48.182;-1.946;2023-04-30T11:23:25;16.40;99.90
61400;DHT22;47269;48.182;-1.946;2023-04-30T11:25:53;17.10;99.90
61400;DHT22;47269;48.182;-1.946;2023-04-30T11:28:26;17.00;99.90
61400;DHT22;47269;48.182;-1.946;2023-04-30T11:30:54;16.50;99.90
61400;DHT22;47269;48.182;-1.946;2023-04-30T11:33:22;16.40;99.90
61400;DHT22;47269;48.182;-1.946;2023-04-30T11:35:49;16.20;99.90
61400;DHT22;47269;48.182;-1.946;2023-04-30T11:38:25;16.40;99.90
61400;DHT22;47269;48.182;-1.946;2023-04-30T11:40:51;16.30;99.90
61400;DHT22;47269;48.182;-1.946;2023-04-30T11:43:26;16.40;99.90
61400;DHT22;47269;48.182;-1.946;2023-04-30T11:46:12;16.20;99.90
61400;DHT22;47269;48.182;-1.946;2023-04-30T11:48:43;16.30;99.90
61400;DHT22;47269;48.182;-1.946;2023-04-30T11:51:22;16.40;99.90
61400;DHT22;47269;48.182;-1.946;2023-04-30T11:53:50;16.60;99.90
61400;DHT22;47269;48.182;-1.946;2023-04-30T11:56:20;17.20;99.90
61400;DHT22;47269;48.182;-1.946;2023-04-30T11:58:47;17.90;99.90
61400;DHT22;47269;48.182;-1.946;2023-04-30T12:01:14;18.80;99.90
61400;DHT22;47269;48.182;-1.946;2023-04-30T12:03:44;18.30;99.90
61400;DHT22;47269;48.182;-1.946;2023-04-30T12:06:27;18.10;99.90
61400;DHT22;47269;48.182;-1.946;2023-04-30T12:08:58;17.90;99.90
61400;DHT22;47269;48.182;-1.946;2023-04-30T12:11:30;17.50;99.90
61400;DHT22;47269;48.182;-1.946;2023-04-30T12:14:06;18.00;99.90
61400;DHT22;47269;48.182;-1.946;2023-04-30T12:16:50;18.90;99.90
61400;DHT22;47269;48.182;-1.946;2023-04-30T12:19:20;18.40;99.90
61400;DHT22;47269;48.182;-1.946;2023-04-30T12:21:47;17.10;99.90
61400;DHT22;47269;48.182;-1.946;2023-04-30T12:24:17;17.20;99.90
61400;DHT22;47269;48.182;-1.946;2023-04-30T12:26:43;18.40;99.90
61400;DHT22;47269;48.182;-1.946;2023-04-30T12:29:16;19.00;99.90
61400;DHT22;47269;48.182;-1.946;2023-04-30T12:31:43;19.10;99.90
61400;DHT22;47269;48.182;-1.946;2023-04-30T12:34:12;19.90;99.90
61400;DHT22;47269;48.182;-1.946;2023-04-30T12:36:39;19.40;99.90
61400;DHT22;47269;48.182;-1.946;2023-04-30T12:39:14;19.60;99.90
61400;DHT22;47269;48.182;-1.946;2023-04-30T12:41:47;19.30;99.90
61400;DHT22;47269;48.182;-1.946;2023-04-30T12:44:23;19.80;99.90
61400;DHT22;47269;48.182;-1.946;2023-04-30T12:46:51;19.80;99.90
61400;DHT22;47269;48.182;-1.946;2023-04-30T12:49:27;19.10;99.90
61400;DHT22;47269;48.182;-1.946;2023-04-30T12:52:04;19.40;99.90
61400;DHT22;47269;48.182;-1.946;2023-04-30T12:54:33;20.30;99.90
61400;DHT22;47269;48.182;-1.946;2023-04-30T13:02:21;19.50;99.90
61400;DHT22;47269;48.182;-1.946;2023-04-30T13:04:48;19.50;99.90
61400;DHT22;47269;48.182;-1.946;2023-04-30T13:07:14;19.70;99.90
61400;DHT22;47269;48.182;-1.946;2023-04-30T13:09:40;19.40;99.90
61400;DHT22;47269;48.182;-1.946;2023-04-30T13:12:06;19.60;99.90
61400;DHT22;47269;48.182;-1.946;2023-04-30T13:14:32;20.40;99.90
61400;DHT22;47269;48.182;-1.946;2023-04-30T13:16:58;20.50;99.90
61400;DHT22;47269;48.182;-1.946;2023-04-30T13:19:23;20.00;99.90
61400;DHT22;47269;48.182;-1.946;2023-04-30T13:21:49;19.50;99.90
61400;DHT22;47269;48.182;-1.946;2023-04-30T13:24:17;18.80;99.90
61400;DHT22;47269;48.182;-1.946;2023-04-30T13:26:43;18.60;99.90
61400;DHT22;47269;48.182;-1.946;2023-04-30T13:29:10;19.00;99.90
61400;DHT22;47269;48.182;-1.946;2023-04-30T13:31:36;19.70;99.90
61400;DHT22;47269;48.182;-1.946;2023-04-30T13:34:01;20.00;99.90
61400;DHT22;47269;48.182;-1.946;2023-04-30T13:36:27;20.10;99.90
61400;DHT22;47269;48.182;-1.946;2023-04-30T13:38:54;20.20;99.90
61400;DHT22;47269;48.182;-1.946;2023-04-30T13:41:20;19.90;99.90
61400;DHT22;47269;48.182;-1.946;2023-04-30T13:43:47;19.80;99.90
61400;DHT22;47269;48.182;-1.946;2023-04-30T13:46:13;19.10;99.90
61400;DHT22;47269;48.182;-1.946;2023-04-30T13:48:39;19.40;99.90
61400;DHT22;47269;48.182;-1.946;2023-04-30T13:51:16;19.00;99.90
61400;DHT22;47269;48.182;-1.946;2023-04-30T13:53:41;18.70;99.90
61400;DHT22;47269;48.182;-1.946;2023-04-30T13:56:07;18.90;99.90
61400;DHT22;47269;48.182;-1.946;2023-04-30T13:58:33;18.60;99.90
61400;DHT22;47269;48.182;-1.946;2023-04-30T14:00:58;19.00;99.90
61400;DHT22;47269;48.182;-1.946;2023-04-30T14:03:24;18.40;99.90
61400;DHT22;47269;48.182;-1.946;2023-04-30T14:05:50;18.00;99.90
61400;DHT22;47269;48.182;-1.946;2023-04-30T14:08:16;18.50;99.90
61400;DHT22;47269;48.182;-1.946;2023-04-30T14:10:43;18.20;99.90
61400;DHT22;47269;48.182;-1.946;2023-04-30T14:13:08;18.40;99.90
61400;DHT22;47269;48.182;-1.946;2023-04-30T14:15:34;18.60;99.90
61400;DHT22;47269;48.182;-1.946;2023-04-30T14:18:00;19.00;99.90
61400;DHT22;47269;48.182;-1.946;2023-04-30T14:20:26;18.80;99.90
61400;DHT22;47269;48.182;-1.946;2023-04-30T14:22:52;18.70;99.90
61400;DHT22;47269;48.182;-1.946;2023-04-30T14:25:17;18.10;99.90
61400;DHT22;47269;48.182;-1.946;2023-04-30T14:27:43;18.20;99.90
61400;DHT22;47269;48.182;-1.946;2023-04-30T14:30:09;18.30;99.90
61400;DHT22;47269;48.182;-1.946;2023-04-30T14:32:35;18.20;99.90
61400;DHT22;47269;48.182;-1.946;2023-04-30T14:35:01;18.00;99.90
61400;DHT22;47269;48.182;-1.946;2023-04-30T14:37:27;17.70;99.90
61400;DHT22;47269;48.182;-1.946;2023-04-30T14:39:53;17.80;99.90
61400;DHT22;47269;48.182;-1.946;2023-04-30T14:42:19;17.60;99.90
61400;DHT22;47269;48.182;-1.946;2023-04-30T14:44:45;17.40;99.90
61400;DHT22;47269;48.182;-1.946;2023-04-30T14:47:10;17.50;99.90
61400;DHT22;47269;48.182;-1.946;2023-04-30T14:49:36;17.30;99.90
61400;DHT22;47269;48.182;-1.946;2023-04-30T14:52:02;17.50;99.90
61400;DHT22;47269;48.182;-1.946;2023-04-30T14:54:28;17.60;99.90
61400;DHT22;47269;48.182;-1.946;2023-04-30T14:56:54;17.90;99.90
61400;DHT22;47269;48.182;-1.946;2023-04-30T14:59:19;18.10;99.90
61400;DHT22;47269;48.182;-1.946;2023-04-30T15:01:45;18.50;99.90
61400;DHT22;47269;48.182;-1.946;2023-04-30T15:04:11;18.90;99.90
61400;DHT22;47269;48.182;-1.946;2023-04-30T15:06:37;19.10;99.90
61400;DHT22;47269;48.182;-1.946;2023-04-30T15:09:02;19.10;99.90
61400;DHT22;47269;48.182;-1.946;2023-04-30T15:11:28;19.10;99.90
61400;DHT22;47269;48.182;-1.946;2023-04-30T15:13:54;18.90;99.90
61400;DHT22;47269;48.182;-1.946;2023-04-30T15:16:20;19.00;99.90
61400;DHT22;47269;48.182;-1.946;2023-04-30T15:18:46;18.70;99.90
61400;DHT22;47269;48.182;-1.946;2023-04-30T15:21:13;18.80;99.90
61400;DHT22;47269;48.182;-1.946;2023-04-30T15:23:38;18.20;99.90
61400;DHT22;47269;48.182;-1.946;2023-04-30T15:26:05;18.20;99.90
61400;DHT22;47269;48.182;-1.946;2023-04-30T15:28:34;17.80;99.90
61400;DHT22;47269;48.182;-1.946;2023-04-30T15:31:00;17.90;99.90
61400;DHT22;47269;48.182;-1.946;2023-04-30T15:33:26;18.00;99.90
61400;DHT22;47269;48.182;-1.946;2023-04-30T15:35:53;18.10;99.90
61400;DHT22;47269;48.182;-1.946;2023-04-30T15:38:20;18.40;99.90
61400;DHT22;47269;48.182;-1.946;2023-04-30T15:40:46;18.60;99.90
61400;DHT22;47269;48.182;-1.946;2023-04-30T15:43:12;18.70;99.90
61400;DHT22;47269;48.182;-1.946;2023-04-30T15:45:38;18.50;99.90
61400;DHT22;47269;48.182;-1.946;2023-04-30T15:48:04;18.20;99.90
61400;DHT22;47269;48.182;-1.946;2023-04-30T15:50:29;18.10;99.90
61400;DHT22;47269;48.182;-1.946;2023-04-30T15:52:55;17.70;99.90
61400;DHT22;47269;48.182;-1.946;2023-04-30T15:55:22;17.60;99.90
61400;DHT22;47269;48.182;-1.946;2023-04-30T15:57:48;17.70;99.90
61400;DHT22;47269;48.182;-1.946;2023-04-30T16:00:14;17.40;99.90
61400;DHT22;47269;48.182;-1.946;2023-04-30T16:02:40;17.20;99.90
61400;DHT22;47269;48.182;-1.946;2023-04-30T16:05:06;17.40;99.90
61400;DHT22;47269;48.182;-1.946;2023-04-30T16:07:32;17.50;99.90
61400;DHT22;47269;48.182;-1.946;2023-04-30T16:09:58;17.60;99.90
61400;DHT22;47269;48.182;-1.946;2023-04-30T16:12:25;17.60;99.90
61400;DHT22;47269;48.182;-1.946;2023-04-30T16:14:54;17.70;99.90
61400;DHT22;47269;48.182;-1.946;2023-04-30T16:17:20;17.70;99.90
61400;DHT22;47269;48.182;-1.946;2023-04-30T16:19:45;17.70;99.90
61400;DHT22;47269;48.182;-1.946;2023-04-30T16:22:11;17.60;99.90
61400;DHT22;47269;48.182;-1.946;2023-04-30T16:24:37;17.60;99.90
61400;DHT22;47269;48.182;-1.946;2023-04-30T16:27:03;17.60;99.90
61400;DHT22;47269;48.182;-1.946;2023-04-30T16:29:29;17.40;99.90
61400;DHT22;47269;48.182;-1.946;2023-04-30T16:31:55;17.10;99.90
61400;DHT22;47269;48.182;-1.946;2023-04-30T16:34:46;17.20;99.90
61400;DHT22;47269;48.182;-1.946;2023-04-30T16:37:11;16.90;99.90
61400;DHT22;47269;48.182;-1.946;2023-04-30T16:39:38;16.90;99.90
61400;DHT22;47269;48.182;-1.946;2023-04-30T16:42:04;17.00;99.90
61400;DHT22;47269;48.182;-1.946;2023-04-30T16:44:30;16.80;99.90
61400;DHT22;47269;48.182;-1.946;2023-04-30T16:46:56;17.00;99.90
61400;DHT22;47269;48.182;-1.946;2023-04-30T16:49:25;17.40;99.90
61400;DHT22;47269;48.182;-1.946;2023-04-30T16:51:50;17.30;99.90
61400;DHT22;47269;48.182;-1.946;2023-04-30T16:54:16;17.40;99.90
61400;DHT22;47269;48.182;-1.946;2023-04-30T16:56:42;17.50;99.90
61400;DHT22;47269;48.182;-1.946;2023-04-30T16:59:08;17.60;99.90
61400;DHT22;47269;48.182;-1.946;2023-04-30T17:01:33;17.30;99.90
61400;DHT22;47269;48.182;-1.946;2023-04-30T17:03:59;17.50;99.90
61400;DHT22;47269;48.182;-1.946;2023-04-30T17:06:25;17.40;99.90
61400;DHT22;47269;48.182;-1.946;2023-04-30T17:08:51;17.60;99.90
61400;DHT22;47269;48.182;-1.946;2023-04-30T17:11:17;17.70;99.90
61400;DHT22;47269;48.182;-1.946;2023-04-30T17:13:45;17.40;99.90
61400;DHT22;47269;48.182;-1.946;2023-04-30T17:16:11;17.20;99.90
61400;DHT22;47269;48.182;-1.946;2023-04-30T17:18:37;17.30;99.90
61400;DHT22;47269;48.182;-1.946;2023-04-30T17:21:02;17.20;99.90
61400;DHT22;47269;48.182;-1.946;2023-04-30T17:23:28;17.00;99.90
61400;DHT22;47269;48.182;-1.946;2023-04-30T17:25:54;16.90;99.90
61400;DHT22;47269;48.182;-1.946;2023-04-30T17:28:20;16.70;99.90
61400;DHT22;47269;48.182;-1.946;2023-04-30T17:30:46;16.90;99.90
61400;DHT22;47269;48.182;-1.946;2023-04-30T17:33:11;16.70;99.90
61400;DHT22;47269;48.182;-1.946;2023-04-30T17:35:39;16.60;99.90
61400;DHT22;47269;48.182;-1.946;2023-04-30T17:38:05;16.80;99.90
61400;DHT22;47269;48.182;-1.946;2023-04-30T17:40:31;16.70;99.90
61400;DHT22;47269;48.182;-1.946;2023-04-30T17:42:57;16.40;99.90
61400;DHT22;47269;48.182;-1.946;2023-04-30T17:45:23;16.10;99.90
61400;DHT22;47269;48.182;-1.946;2023-04-30T17:47:48;16.10;99.90
61400;DHT22;47269;48.182;-1.946;2023-04-30T17:50:14;16.40;99.90
61400;DHT22;47269;48.182;-1.946;2023-04-30T17:52:40;16.10;99.90
61400;DHT22;47269;48.182;-1.946;2023-04-30T17:55:07;16.00;99.90
61400;DHT22;47269;48.182;-1.946;2023-04-30T17:57:33;15.70;99.90
61400;DHT22;47269;48.182;-1.946;2023-04-30T17:59:59;15.60;99.90
61400;DHT22;47269;48.182;-1.946;2023-04-30T18:02:31;15.70;99.90
61400;DHT22;47269;48.182;-1.946;2023-04-30T18:04:57;15.60;99.90
61400;DHT22;47269;48.182;-1.946;2023-04-30T18:07:26;15.60;99.90
61400;DHT22;47269;48.182;-1.946;2023-04-30T18:09:51;15.50;99.90
61400;DHT22;47269;48.182;-1.946;2023-04-30T18:12:17;15.50;99.90
61400;DHT22;47269;48.182;-1.946;2023-04-30T18:14:43;15.40;99.90
61400;DHT22;47269;48.182;-1.946;2023-04-30T18:17:08;15.40;99.90
61400;DHT22;47269;48.182;-1.946;2023-04-30T18:19:34;15.20;99.90
61400;DHT22;47269;48.182;-1.946;2023-04-30T18:22:05;15.10;99.90
61400;DHT22;47269;48.182;-1.946;2023-04-30T18:24:31;15.00;99.90
61400;DHT22;47269;48.182;-1.946;2023-04-30T18:26:57;14.90;99.90
61400;DHT22;47269;48.182;-1.946;2023-04-30T18:29:23;14.80;99.90
61400;DHT22;47269;48.182;-1.946;2023-04-30T18:31:49;14.70;99.90
61400;DHT22;47269;48.182;-1.946;2023-04-30T18:34:14;14.60;99.90
61400;DHT22;47269;48.182;-1.946;2023-04-30T18:36:40;14.60;99.90
61400;DHT22;47269;48.182;-1.946;2023-04-30T18:39:08;14.60;99.90
61400;DHT22;47269;48.182;-1.946;2023-04-30T18:41:36;14.50;99.90
61400;DHT22;47269;48.182;-1.946;2023-04-30T18:44:02;14.50;99.90
61400;DHT22;47269;48.182;-1.946;2023-04-30T18:46:28;14.60;99.90
61400;DHT22;47269;48.182;-1.946;2023-04-30T18:48:54;14.40;99.90
61400;DHT22;47269;48.182;-1.946;2023-04-30T18:51:36;14.40;99.90
61400;DHT22;47269;48.182;-1.946;2023-04-30T18:54:02;14.30;99.90
61400;DHT22;47269;48.182;-1.946;2023-04-30T18:56:27;14.30;99.90
61400;DHT22;47269;48.182;-1.946;2023-04-30T18:58:53;14.20;99.90
61400;DHT22;47269;48.182;-1.946;2023-04-30T19:01:19;14.10;99.90
61400;DHT22;47269;48.182;-1.946;2023-04-30T19:03:46;14.10;99.90
61400;DHT22;47269;48.182;-1.946;2023-04-30T19:06:12;13.90;99.90
61400;DHT22;47269;48.182;-1.946;2023-04-30T19:08:38;13.80;99.90
61400;DHT22;47269;48.182;-1.946;2023-04-30T19:11:04;13.70;99.90
61400;DHT22;47269;48.182;-1.946;2023-04-30T19:13:29;13.70;99.90
61400;DHT22;47269;48.182;-1.946;2023-04-30T19:15:56;13.60;99.90
61400;DHT22;47269;48.182;-1.946;2023-04-30T19:18:21;13.60;99.90
61400;DHT22;47269;48.182;-1.946;2023-04-30T19:20:58;13.60;99.90
61400;DHT22;47269;48.182;-1.946;2023-04-30T19:23:25;13.50;99.90
61400;DHT22;47269;48.182;-1.946;2023-04-30T19:25:52;13.50;99.90
61400;DHT22;47269;48.182;-1.946;2023-04-30T19:28:18;13.50;99.90
61400;DHT22;47269;48.182;-1.946;2023-04-30T19:30:43;13.50;99.90
61400;DHT22;47269;48.182;-1.946;2023-04-30T19:33:09;13.50;99.90
61400;DHT22;47269;48.182;-1.946;2023-04-30T19:35:36;13.60;99.90
61400;DHT22;47269;48.182;-1.946;2023-04-30T19:38:02;13.40;99.90
61400;DHT22;47269;48.182;-1.946;2023-04-30T19:40:28;13.40;99.90
61400;DHT22;47269;48.182;-1.946;2023-04-30T19:42:54;13.30;99.90
61400;DHT22;47269;48.182;-1.946;2023-04-30T19:45:19;13.20;99.90
61400;DHT22;47269;48.182;-1.946;2023-04-30T19:47:45;13.20;99.90
61400;DHT22;47269;48.182;-1.946;2023-04-30T19:50:11;13.30;99.90
61400;DHT22;47269;48.182;-1.946;2023-04-30T19:52:37;13.30;99.90
61400;DHT22;47269;48.182;-1.946;2023-04-30T19:55:03;13.20;99.90
61400;DHT22;47269;48.182;-1.946;2023-04-30T19:57:28;13.20;99.90
61400;DHT22;47269;48.182;-1.946;2023-04-30T19:59:59;13.20;99.90
61400;DHT22;47269;48.182;-1.946;2023-04-30T20:02:25;13.20;99.90
61400;DHT22;47269;48.182;-1.946;2023-04-30T20:04:51;13.20;99.90
61400;DHT22;47269;48.182;-1.946;2023-04-30T20:07:17;13.20;99.90
61400;DHT22;47269;48.182;-1.946;2023-04-30T20:09:44;13.20;99.90
61400;DHT22;47269;48.182;-1.946;2023-04-30T20:12:10;13.20;99.90
61400;DHT22;47269;48.182;-1.946;2023-04-30T20:14:36;13.20;99.90
61400;DHT22;47269;48.182;-1.946;2023-04-30T20:17:01;13.10;99.90
61400;DHT22;47269;48.182;-1.946;2023-04-30T20:19:28;13.10;99.90
61400;DHT22;47269;48.182;-1.946;2023-04-30T20:21:53;13.10;99.90
61400;DHT22;47269;48.182;-1.946;2023-04-30T20:24:19;13.00;99.90
61400;DHT22;47269;48.182;-1.946;2023-04-30T20:26:46;13.10;99.90
61400;DHT22;47269;48.182;-1.946;2023-04-30T20:29:12;13.10;99.90
61400;DHT22;47269;48.182;-1.946;2023-04-30T20:31:37;13.00;99.90
61400;DHT22;47269;48.182;-1.946;2023-04-30T20:34:03;13.00;99.90
61400;DHT22;47269;48.182;-1.946;2023-04-30T20:36:29;13.00;99.90
61400;DHT22;47269;48.182;-1.946;2023-04-30T20:38:57;13.00;99.90
61400;DHT22;47269;48.182;-1.946;2023-04-30T20:41:24;13.10;99.90
61400;DHT22;47269;48.182;-1.946;2023-04-30T20:43:51;13.10;99.90
61400;DHT22;47269;48.182;-1.946;2023-04-30T20:46:18;13.00;99.90
61400;DHT22;47269;48.182;-1.946;2023-04-30T20:48:44;13.10;99.90
61400;DHT22;47269;48.182;-1.946;2023-04-30T20:51:10;13.10;99.90
61400;DHT22;47269;48.182;-1.946;2023-04-30T20:53:36;13.20;99.90
61400;DHT22;47269;48.182;-1.946;2023-04-30T20:56:02;13.00;99.90
61400;DHT22;47269;48.182;-1.946;2023-04-30T20:58:28;13.00;99.90
61400;DHT22;47269;48.182;-1.946;2023-04-30T21:00:53;12.90;99.90
61400;DHT22;47269;48.182;-1.946;2023-04-30T21:03:19;12.80;99.90
61400;DHT22;47269;48.182;-1.946;2023-04-30T21:05:45;12.70;99.90
61400;DHT22;47269;48.182;-1.946;2023-04-30T21:08:11;12.70;99.90
61400;DHT22;47269;48.182;-1.946;2023-04-30T21:10:39;12.60;99.90
61400;DHT22;47269;48.182;-1.946;2023-04-30T21:13:05;12.40;99.90
61400;DHT22;47269;48.182;-1.946;2023-04-30T21:15:34;12.40;99.90
61400;DHT22;47269;48.182;-1.946;2023-04-30T21:18:00;12.30;99.90
61400;DHT22;47269;48.182;-1.946;2023-04-30T21:20:26;12.20;99.90
61400;DHT22;47269;48.182;-1.946;2023-04-30T21:22:52;12.20;99.90
61400;DHT22;47269;48.182;-1.946;2023-04-30T21:25:20;12.30;99.90
61400;DHT22;47269;48.182;-1.946;2023-04-30T21:27:46;12.40;99.90